createdAt,value
2018-07-01T00:00:11.025Z,64.37
2018-07-01T00:01:10.996Z,63.60
2018-07-01T00:02:10.977Z,64.28
2018-07-01T00:03:10.963Z,63.23
2018-07-01T00:04:10.947Z,63.80
2018-07-01T00:05:10.923Z,64.47
2018-07-01T00:06:10.906Z,64.18
2018-07-01T00:07:10.893Z,64.18
2018-07-01T00:08:10.872Z,64.18
2018-07-01T00:09:10.861Z,64.37
2018-07-01T00:10:10.847Z,64.18
2018-07-01T00:11:10.820Z,64.56
2018-07-01T00:12:10.803Z,64.85
2018-07-01T00:13:10.789Z,64.94
2018-07-01T00:14:10.766Z,64.94
2018-07-01T00:15:10.758Z,65.04
2018-07-01T00:16:10.732Z,65.10
2018-07-01T00:17:10.716Z,64.72
2018-07-01T00:18:10.698Z,65.58
2018-07-01T00:19:10.679Z,65.48
2018-07-01T00:20:10.659Z,65.67
2018-07-01T00:21:10.645Z,65.77
2018-07-01T00:22:10.626Z,65.58
2018-07-01T00:23:10.608Z,65.77
2018-07-01T00:24:10.594Z,65.77
2018-07-01T00:25:10.575Z,65.96
2018-07-01T00:26:10.570Z,65.87
2018-07-01T00:27:10.537Z,65.58
2018-07-01T00:28:10.523Z,65.58
2018-07-01T00:29:10.507Z,65.77
2018-07-01T00:30:10.486Z,65.67
2018-07-01T00:31:10.472Z,65.39
2018-07-01T00:32:10.451Z,65.77
2018-07-01T00:33:10.432Z,65.67
2018-07-01T00:34:10.415Z,65.96
2018-07-01T00:35:10.399Z,66.72
2018-07-01T00:36:10.381Z,65.48
2018-07-01T00:37:10.369Z,65.58
2018-07-01T00:38:10.344Z,65.20
2018-07-01T00:39:10.326Z,65.39
2018-07-01T00:40:10.307Z,65.77
2018-07-01T00:41:10.290Z,65.96
2018-07-01T00:42:10.272Z,66.15
2018-07-01T00:43:10.253Z,65.20
2018-07-01T00:44:10.237Z,65.77
2018-07-01T00:45:10.218Z,66.35
2018-07-01T00:46:10.199Z,66.35
2018-07-01T00:47:10.183Z,67.01
2018-07-01T00:48:10.164Z,67.01
2018-07-01T00:49:10.149Z,66.63
2018-07-01T00:50:10.128Z,67.01
2018-07-01T00:51:10.112Z,67.01
2018-07-01T00:52:10.093Z,67.11
2018-07-01T00:53:10.076Z,67.01
2018-07-01T00:54:10.058Z,67.77
2018-07-01T00:55:10.038Z,67.01
2018-07-01T00:56:10.026Z,67.11
2018-07-01T00:57:10.004Z,68.12
2018-07-01T00:58:09.985Z,67.97
2018-07-01T00:59:09.967Z,67.68
2018-07-01T01:00:09.951Z,68.12
2018-07-01T01:01:09.930Z,68.26
2018-07-01T01:02:09.913Z,68.60
2018-07-01T01:03:09.894Z,68.41
2018-07-01T01:04:09.875Z,68.32
2018-07-01T01:05:09.860Z,68.88
2018-07-01T01:06:09.841Z,68.70
2018-07-01T01:07:09.826Z,68.98
2018-07-01T01:08:09.804Z,69.08
2018-07-01T01:09:09.786Z,68.98
2018-07-01T01:10:09.767Z,69.17
2018-07-01T01:11:09.750Z,69.17
2018-07-01T01:12:09.732Z,69.08
2018-07-01T01:13:09.714Z,68.88
2018-07-01T01:14:09.694Z,68.79
2018-07-01T01:15:09.676Z,69.65
2018-07-01T01:16:09.663Z,69.74
2018-07-01T01:17:09.641Z,69.08
2018-07-01T01:18:09.622Z,68.79
2018-07-01T01:19:09.604Z,69.37
2018-07-01T01:20:09.589Z,69.08
2018-07-01T01:21:09.567Z,68.60
2018-07-01T01:22:09.553Z,69.17
2018-07-01T01:23:09.533Z,69.08
2018-07-01T01:24:09.513Z,69.93
2018-07-01T01:25:09.494Z,70.03
2018-07-01T01:26:09.480Z,70.32
2018-07-01T01:27:09.465Z,70.22
2018-07-01T01:28:09.441Z,70.22
2018-07-01T01:29:09.420Z,69.65
2018-07-01T01:30:09.402Z,70.03
2018-07-01T01:31:09.385Z,70.32
2018-07-01T01:32:09.366Z,70.03
2018-07-01T01:33:09.350Z,70.61
2018-07-01T01:34:09.333Z,70.32
2018-07-01T01:35:09.311Z,70.51
2018-07-01T01:36:09.294Z,70.42
2018-07-01T01:37:09.276Z,70.79
2018-07-01T01:38:09.257Z,70.42
2018-07-01T01:39:09.239Z,70.51
2018-07-01T01:40:09.220Z,71.08
2018-07-01T01:41:09.203Z,71.27
2018-07-01T01:42:09.183Z,71.37
2018-07-01T01:43:09.172Z,72.32
2018-07-01T01:44:09.146Z,72.48
2018-07-01T01:45:09.126Z,71.81
2018-07-01T01:46:09.109Z,72.03
2018-07-01T01:47:09.091Z,72.61
2018-07-01T01:48:09.071Z,72.42
2018-07-01T01:49:09.057Z,72.23
2018-07-01T01:50:09.034Z,72.51
2018-07-01T01:51:09.021Z,71.81
2018-07-01T01:52:08.997Z,72.23
2018-07-01T01:53:08.980Z,72.96
2018-07-01T01:54:08.960Z,73.47
2018-07-01T01:55:08.943Z,72.80
2018-07-01T01:56:08.924Z,72.80
2018-07-01T01:57:08.907Z,72.80
2018-07-01T01:58:08.890Z,73.56
2018-07-01T01:59:08.871Z,73.56
2018-07-01T02:00:08.852Z,72.80
2018-07-01T02:01:08.831Z,72.57
2018-07-01T02:02:08.816Z,72.67
2018-07-01T02:03:08.794Z,72.86
2018-07-01T02:04:08.776Z,72.96
2018-07-01T02:05:08.759Z,72.67
2018-07-01T02:06:08.739Z,72.96
2018-07-01T02:07:08.728Z,72.86
2018-07-01T02:08:08.710Z,73.28
2018-07-01T02:09:08.685Z,73.33
2018-07-01T02:10:08.664Z,72.76
2018-07-01T02:11:08.650Z,72.80
2018-07-01T02:12:08.627Z,72.99
2018-07-01T02:13:08.611Z,73.14
2018-07-01T02:14:08.589Z,73.81
2018-07-01T02:15:08.571Z,72.86
2018-07-01T02:16:08.555Z,73.33
2018-07-01T02:17:08.536Z,73.62
2018-07-01T02:18:08.517Z,73.52
2018-07-01T02:19:08.495Z,73.14
2018-07-01T02:20:08.475Z,73.81
2018-07-01T02:21:08.461Z,73.52
2018-07-01T02:22:09.856Z,73.43
2018-07-01T02:23:08.420Z,73.43
2018-07-01T02:24:08.404Z,73.43
2018-07-01T02:25:08.386Z,73.43
2018-07-01T02:26:08.363Z,73.43
2018-07-01T02:27:08.345Z,74.10
2018-07-01T02:28:08.329Z,74.29
2018-07-01T02:29:08.307Z,74.19
2018-07-01T02:30:08.288Z,74.19
2018-07-01T02:31:08.271Z,74.10
2018-07-01T02:32:08.252Z,73.72
2018-07-01T02:33:08.232Z,74.01
2018-07-01T02:34:08.213Z,74.10
2018-07-01T02:35:08.194Z,74.19
2018-07-01T02:36:08.177Z,73.14
2018-07-01T02:37:08.164Z,74.19
2018-07-01T02:38:08.139Z,74.19
2018-07-01T02:39:08.117Z,73.81
2018-07-01T02:40:08.100Z,73.91
2018-07-01T02:41:08.081Z,74.29
2018-07-01T02:42:08.062Z,74.19
2018-07-01T02:43:08.043Z,74.77
2018-07-01T02:44:08.025Z,74.86
2018-07-01T02:45:08.006Z,74.86
2018-07-01T02:46:08.063Z,74.77
2018-07-01T02:47:07.979Z,75.34
2018-07-01T02:48:07.957Z,75.34
2018-07-01T02:49:07.934Z,75.34
2018-07-01T02:50:07.910Z,75.43
2018-07-01T02:51:07.891Z,75.53
2018-07-01T02:52:07.873Z,75.43
2018-07-01T02:53:07.855Z,75.43
2018-07-01T02:54:07.839Z,75.34
2018-07-01T02:55:07.820Z,75.34
2018-07-01T02:56:07.797Z,75.43
2018-07-01T02:57:07.778Z,75.53
2018-07-01T02:58:07.769Z,75.49
2018-07-01T02:59:07.745Z,75.59
2018-07-01T03:00:07.723Z,76.20
2018-07-01T03:01:07.702Z,75.96
2018-07-01T03:02:07.683Z,75.87
2018-07-01T03:03:07.664Z,76.25
2018-07-01T03:04:07.647Z,76.44
2018-07-01T03:05:07.645Z,76.73
2018-07-01T03:06:07.611Z,77.01
2018-07-01T03:07:07.588Z,76.82
2018-07-01T03:08:07.569Z,77.01
2018-07-01T03:09:07.553Z,77.20
2018-07-01T03:10:07.532Z,77.11
2018-07-01T03:11:07.513Z,76.64
2018-07-01T03:12:07.495Z,77.01
2018-07-01T03:13:07.475Z,77.30
2018-07-01T03:14:07.463Z,77.30
2018-07-01T03:15:07.436Z,77.49
2018-07-01T03:16:07.416Z,77.30
2018-07-01T03:17:07.401Z,77.69
2018-07-01T03:18:07.379Z,77.30
2018-07-01T03:19:07.360Z,77.40
2018-07-01T03:20:07.340Z,77.78
2018-07-01T03:21:07.321Z,77.87
2018-07-01T03:22:07.300Z,78.06
2018-07-01T03:23:07.282Z,77.69
2018-07-01T03:24:07.263Z,77.69
2018-07-01T03:25:07.244Z,77.97
2018-07-01T03:26:07.223Z,77.87
2018-07-01T03:27:07.209Z,78.25
2018-07-01T03:28:07.196Z,78.35
2018-07-01T03:29:07.173Z,77.87
2018-07-01T03:30:07.149Z,77.87
2018-07-01T03:31:07.130Z,78.16
2018-07-01T03:32:07.108Z,77.87
2018-07-01T03:33:07.094Z,78.35
2018-07-01T03:34:07.074Z,77.97
2018-07-01T03:35:07.050Z,77.97
2018-07-01T03:36:07.034Z,78.35
2018-07-01T03:37:07.014Z,78.73
2018-07-01T03:38:07.003Z,78.92
2018-07-01T03:39:06.974Z,78.92
2018-07-01T03:40:06.956Z,78.44
2018-07-01T03:41:06.934Z,79.21
2018-07-01T03:42:06.917Z,79.40
2018-07-01T03:43:06.896Z,79.02
2018-07-01T03:44:06.877Z,79.40
2018-07-01T03:45:06.858Z,79.11
2018-07-01T03:46:06.837Z,79.49
2018-07-01T03:47:06.820Z,79.78
2018-07-01T03:48:06.799Z,79.02
2018-07-01T03:49:06.781Z,79.40
2018-07-01T03:50:06.817Z,79.88
2018-07-01T03:51:06.740Z,79.78
2018-07-01T03:52:06.725Z,79.78
2018-07-01T03:53:06.703Z,80.16
2018-07-01T03:54:06.682Z,79.88
2018-07-01T03:55:06.663Z,80.26
2018-07-01T03:56:06.648Z,79.68
2018-07-01T03:57:06.626Z,79.88
2018-07-01T03:58:06.605Z,80.16
2018-07-01T03:59:06.587Z,80.16
2018-07-01T04:00:06.567Z,80.54
2018-07-01T04:01:06.553Z,80.16
2018-07-01T04:02:06.528Z,80.35
2018-07-01T04:03:06.508Z,79.88
2018-07-01T04:04:06.489Z,79.78
2018-07-01T04:05:06.470Z,80.64
2018-07-01T04:06:06.451Z,80.35
2018-07-01T04:07:06.435Z,81.21
2018-07-01T04:08:06.410Z,80.26
2018-07-01T04:09:06.393Z,80.64
2018-07-01T04:10:06.373Z,80.64
2018-07-01T04:11:06.355Z,80.83
2018-07-01T04:12:06.335Z,80.35
2018-07-01T04:13:06.316Z,80.73
2018-07-01T04:14:06.298Z,80.64
2018-07-01T04:15:06.278Z,80.54
2018-07-01T04:16:06.257Z,80.83
2018-07-01T04:17:06.237Z,79.88
2018-07-01T04:18:06.217Z,80.16
2018-07-01T04:19:06.198Z,79.68
2018-07-01T04:20:06.187Z,79.88
2018-07-01T04:21:06.160Z,79.78
2018-07-01T04:22:06.141Z,80.35
2018-07-01T04:23:06.123Z,80.44
2018-07-01T04:24:06.100Z,80.68
2018-07-01T04:25:06.085Z,80.11
2018-07-01T04:26:06.062Z,80.20
2018-07-01T04:27:06.045Z,79.91
2018-07-01T04:28:06.023Z,80.16
2018-07-01T04:29:06.006Z,80.01
2018-07-01T04:30:05.984Z,80.77
2018-07-01T04:31:05.980Z,80.11
2018-07-01T04:32:05.948Z,79.91
2018-07-01T04:33:05.929Z,79.91
2018-07-01T04:34:05.907Z,80.20
2018-07-01T04:35:05.888Z,79.53
2018-07-01T04:36:05.867Z,79.25
2018-07-01T04:37:05.855Z,79.15
2018-07-01T04:38:05.830Z,79.06
2018-07-01T04:39:05.812Z,79.63
2018-07-01T04:40:05.791Z,79.63
2018-07-01T04:41:05.776Z,78.96
2018-07-01T04:42:05.754Z,78.96
2018-07-01T04:43:05.734Z,78.86
2018-07-01T04:44:05.716Z,79.35
2018-07-01T04:45:05.699Z,79.25
2018-07-01T04:46:05.681Z,78.58
2018-07-01T04:47:05.663Z,78.52
2018-07-01T04:48:05.637Z,78.30
2018-07-01T04:49:05.620Z,78.43
2018-07-01T04:50:05.599Z,78.43
2018-07-01T04:51:05.580Z,78.05
2018-07-01T04:52:05.565Z,78.91
2018-07-01T04:53:05.543Z,78.91
2018-07-01T04:54:05.525Z,78.43
2018-07-01T04:55:05.529Z,78.52
2018-07-01T04:56:05.489Z,77.86
2018-07-01T04:57:05.465Z,77.95
2018-07-01T04:58:05.447Z,77.86
2018-07-01T04:59:05.433Z,77.67
2018-07-01T05:00:05.412Z,77.86
2018-07-01T05:01:05.398Z,77.86
2018-07-01T05:02:05.448Z,77.76
2018-07-01T05:03:05.354Z,77.42
2018-07-01T05:04:05.343Z,77.47
2018-07-01T05:05:05.318Z,77.42
2018-07-01T05:06:05.297Z,77.32
2018-07-01T05:07:05.277Z,76.84
2018-07-01T05:08:05.260Z,76.56
2018-07-01T05:09:05.241Z,76.84
2018-07-01T05:10:05.222Z,76.56
2018-07-01T05:11:05.204Z,77.03
2018-07-01T05:12:05.185Z,76.56
2018-07-01T05:13:05.168Z,76.56
2018-07-01T05:14:05.146Z,76.37
2018-07-01T05:15:05.127Z,76.56
2018-07-01T05:16:05.113Z,76.18
2018-07-01T05:17:05.102Z,76.18
2018-07-01T05:18:05.073Z,75.89
2018-07-01T05:19:05.057Z,76.27
2018-07-01T05:20:05.033Z,76.56
2018-07-01T05:21:05.021Z,76.31
2018-07-01T05:22:04.996Z,76.18
2018-07-01T05:23:04.981Z,75.93
2018-07-01T05:24:04.959Z,75.64
2018-07-01T05:25:04.941Z,75.93
2018-07-01T05:26:04.927Z,75.45
2018-07-01T05:27:04.903Z,75.45
2018-07-01T05:28:04.888Z,75.64
2018-07-01T05:29:04.867Z,75.74
2018-07-01T05:30:04.851Z,74.69
2018-07-01T05:31:04.829Z,74.91
2018-07-01T05:32:04.812Z,75.49
2018-07-01T05:33:04.793Z,75.26
2018-07-01T05:34:04.776Z,73.96
2018-07-01T05:35:04.782Z,74.24
2018-07-01T05:36:04.737Z,74.15
2018-07-01T05:37:04.720Z,74.91
2018-07-01T05:38:04.705Z,74.24
2018-07-01T05:39:04.682Z,74.53
2018-07-01T05:40:04.667Z,74.34
2018-07-01T05:41:04.648Z,73.48
2018-07-01T05:42:04.630Z,74.28
2018-07-01T05:43:04.610Z,73.99
2018-07-01T05:44:04.591Z,73.71
2018-07-01T05:45:04.579Z,73.80
2018-07-01T05:46:04.556Z,73.04
2018-07-01T05:47:04.538Z,74.48
2018-07-01T05:48:04.521Z,74.19
2018-07-01T05:49:04.502Z,73.52
2018-07-01T05:50:04.483Z,72.85
2018-07-01T05:51:04.465Z,73.55
2018-07-01T05:52:04.450Z,72.98
2018-07-01T05:53:04.429Z,72.79
2018-07-01T05:54:04.410Z,72.50
2018-07-01T05:55:04.396Z,72.41
2018-07-01T05:56:04.377Z,72.60
2018-07-01T05:57:04.427Z,72.41
2018-07-01T05:58:04.345Z,71.73
2018-07-01T05:59:04.323Z,71.87
2018-07-01T06:00:04.310Z,71.68
2018-07-01T06:01:04.286Z,70.81
2018-07-01T06:02:04.270Z,71.48
2018-07-01T06:03:04.254Z,71.30
2018-07-01T06:04:04.235Z,71.58
2018-07-01T06:05:04.215Z,72.06
2018-07-01T06:06:04.198Z,71.39
2018-07-01T06:07:04.182Z,71.30
2018-07-01T06:08:04.168Z,71.33
2018-07-01T06:09:04.146Z,70.76
2018-07-01T06:10:04.131Z,71.52
2018-07-01T06:11:04.120Z,70.56
2018-07-01T06:12:04.096Z,70.66
2018-07-01T06:13:04.078Z,70.28
2018-07-01T06:14:04.080Z,70.66
2018-07-01T06:15:04.044Z,70.70
2018-07-01T06:16:04.026Z,70.03
2018-07-01T06:17:04.013Z,69.54
2018-07-01T06:18:03.994Z,68.78
2018-07-01T06:19:03.981Z,68.68
2018-07-01T06:20:03.959Z,68.68
2018-07-01T06:21:03.943Z,68.78
2018-07-01T06:22:03.932Z,67.91
2018-07-01T06:23:03.914Z,67.05
2018-07-01T06:24:03.893Z,67.54
2018-07-01T06:25:03.875Z,67.09
2018-07-01T06:26:03.857Z,66.96
2018-07-01T06:27:03.840Z,67.47
2018-07-01T06:28:03.819Z,66.80
2018-07-01T06:29:03.805Z,66.80
2018-07-01T06:30:03.789Z,66.80
2018-07-01T06:31:03.773Z,66.61
2018-07-01T06:32:03.757Z,65.84
2018-07-01T06:33:03.739Z,65.78
2018-07-01T06:34:03.727Z,65.39
2018-07-01T06:35:03.704Z,64.53
2018-07-01T06:36:03.689Z,64.92
2018-07-01T06:37:03.674Z,64.82
2018-07-01T06:38:03.654Z,65.14
2018-07-01T06:39:03.643Z,64.18
2018-07-01T06:40:03.623Z,63.03
2018-07-01T06:41:03.610Z,63.32
2018-07-01T06:42:03.684Z,62.77
2018-07-01T06:43:03.572Z,62.87
2018-07-01T06:44:03.558Z,61.43
2018-07-01T06:45:03.548Z,61.36
2018-07-01T06:46:03.528Z,61.55
2018-07-01T06:47:03.512Z,60.21
2018-07-01T06:48:03.501Z,59.25
2018-07-01T06:49:03.482Z,59.19
2018-07-01T06:50:03.466Z,58.89
2018-07-01T06:51:03.449Z,58.51
2018-07-01T06:52:03.437Z,58.03
2018-07-01T06:53:03.418Z,58.73
2018-07-01T06:54:03.402Z,58.35
2018-07-01T06:55:03.392Z,58.15
2018-07-01T06:56:03.373Z,60.94
2018-07-01T06:57:03.359Z,58.35
2018-07-01T06:58:03.344Z,56.33
2018-07-01T06:59:03.327Z,55.68
2018-07-01T07:00:03.319Z,55.78
2018-07-01T07:01:03.306Z,56.55
2018-07-01T07:02:03.286Z,55.78
2018-07-01T07:03:03.272Z,56.07
2018-07-01T07:04:03.255Z,56.45
2018-07-01T07:05:03.240Z,56.93
2018-07-01T07:06:03.225Z,55.98
2018-07-01T07:07:03.210Z,55.98
2018-07-01T07:08:03.265Z,56.36
2018-07-01T07:09:03.185Z,56.36
2018-07-01T07:10:03.171Z,55.98
2018-07-01T07:11:03.152Z,56.55
2018-07-01T07:12:03.147Z,55.01
2018-07-01T07:13:03.128Z,54.82
2018-07-01T07:14:03.109Z,53.96
2018-07-01T07:15:03.097Z,54.34
2018-07-01T07:16:03.083Z,55.68
2018-07-01T07:17:03.068Z,55.98
2018-07-01T07:18:03.055Z,54.34
2018-07-01T07:19:03.043Z,55.01
2018-07-01T07:20:03.027Z,55.88
2018-07-01T07:21:03.017Z,55.11
2018-07-01T07:22:02.998Z,53.96
2018-07-01T07:23:02.985Z,53.28
2018-07-01T07:24:02.984Z,53.28
2018-07-01T07:25:02.967Z,53.28
2018-07-01T07:26:02.944Z,52.87
2018-07-01T07:27:02.933Z,52.99
2018-07-01T07:28:02.916Z,52.80
2018-07-01T07:29:02.905Z,51.74
2018-07-01T07:30:02.892Z,52.03
2018-07-01T07:31:02.876Z,51.35
2018-07-01T07:32:02.907Z,52.42
2018-07-01T07:33:02.848Z,52.80
2018-07-01T07:34:02.832Z,51.57
2018-07-01T07:35:02.822Z,51.48
2018-07-01T07:36:02.806Z,50.23
2018-07-01T07:37:02.791Z,50.51
2018-07-01T07:38:02.777Z,50.81
2018-07-01T07:39:02.765Z,50.61
2018-07-01T07:40:02.758Z,51.96
2018-07-01T07:41:02.737Z,51.76
2018-07-01T07:42:02.724Z,51.76
2018-07-01T07:43:02.709Z,51.57
2018-07-01T07:44:02.701Z,51.86
2018-07-01T07:45:02.855Z,51.86
2018-07-01T07:46:02.669Z,51.48
2018-07-01T07:47:02.657Z,51.38
2018-07-01T07:48:02.641Z,50.90
2018-07-01T07:49:02.628Z,51.67
2018-07-01T07:50:02.618Z,50.71
2018-07-01T07:51:02.603Z,50.13
2018-07-01T07:52:02.589Z,49.77
2018-07-01T07:53:02.574Z,47.05
2018-07-01T07:54:02.566Z,47.94
2018-07-01T07:55:02.548Z,45.44
2018-07-01T07:56:02.534Z,45.05
2018-07-01T07:57:02.522Z,45.92
2018-07-01T07:58:02.513Z,46.52
2018-07-01T07:59:02.498Z,46.52
2018-07-01T08:00:02.486Z,46.35
2018-07-01T08:01:02.467Z,45.21
2018-07-01T08:02:02.573Z,44.15
2018-07-01T08:03:02.452Z,43.77
2018-07-01T08:04:02.430Z,45.14
2018-07-01T08:05:02.417Z,44.37
2018-07-01T08:06:02.406Z,43.81
2018-07-01T08:07:02.393Z,42.73
2018-07-01T08:08:02.377Z,42.18
2018-07-01T08:09:02.364Z,41.46
2018-07-01T08:10:02.352Z,38.04
2018-07-01T08:11:02.338Z,35.48
2018-07-01T08:12:02.325Z,33.39
2018-07-01T08:13:02.328Z,31.10
2018-07-01T08:14:02.301Z,29.55
2018-07-01T08:15:02.291Z,29.21
2018-07-01T08:16:02.279Z,26.59
2018-07-01T08:17:02.263Z,25.54
2018-07-01T08:18:02.259Z,24.58
2018-07-01T08:19:02.238Z,23.82
2018-07-01T08:20:02.228Z,24.12
2018-07-01T08:21:02.216Z,23.25
2018-07-01T08:22:02.267Z,23.16
2018-07-01T08:23:02.196Z,22.38
2018-07-01T08:24:02.198Z,22.98
2018-07-01T08:25:02.186Z,21.61
2018-07-01T08:26:02.169Z,23.15
2018-07-01T08:27:02.160Z,23.22
2018-07-01T08:28:02.155Z,25.03
2018-07-01T08:29:02.261Z,25.87
2018-07-01T08:30:02.135Z,26.94
2018-07-01T08:31:02.131Z,28.08
2018-07-01T08:32:02.124Z,29.43
2018-07-01T08:33:02.113Z,30.48
2018-07-01T08:34:02.108Z,30.45
2018-07-01T08:35:02.104Z,30.19
2018-07-01T08:36:02.089Z,27.89
2018-07-01T08:37:02.080Z,27.93
2018-07-01T08:38:02.069Z,26.39
2018-07-01T08:39:02.069Z,26.07
2018-07-01T08:40:02.054Z,26.72
2018-07-01T08:41:02.046Z,27.19
2018-07-01T08:42:02.046Z,28.83
2018-07-01T08:43:02.030Z,29.40
2018-07-01T08:44:02.024Z,29.51
2018-07-01T08:45:02.017Z,28.58
2018-07-01T08:46:02.015Z,27.83
2018-07-01T08:47:02.011Z,27.66
2018-07-01T08:48:01.994Z,26.91
2018-07-01T08:49:01.989Z,25.27
2018-07-01T08:50:01.985Z,24.22
2018-07-01T08:51:01.975Z,24.35
2018-07-01T08:52:01.982Z,23.49
2018-07-01T08:53:01.964Z,23.02
2018-07-01T08:54:01.957Z,20.88
2018-07-01T08:55:02.005Z,21.58
2018-07-01T08:56:01.950Z,21.49
2018-07-01T08:57:01.944Z,19.12
2018-07-01T08:58:01.937Z,20.10
2018-07-01T08:59:01.931Z,20.86
2018-07-01T09:00:01.929Z,21.71
2018-07-01T09:01:01.933Z,22.27
2018-07-01T09:02:01.930Z,23.34
2018-07-01T09:03:01.922Z,24.12
2018-07-01T09:04:01.915Z,23.93
2018-07-01T09:05:01.908Z,23.97
2018-07-01T09:06:01.901Z,23.68
2018-07-01T09:07:01.897Z,23.02
2018-07-01T09:08:01.906Z,21.45
2018-07-01T09:09:01.891Z,21.56
2018-07-01T09:10:01.887Z,20.89
2018-07-01T09:11:01.883Z,21.38
2018-07-01T09:12:01.882Z,19.13
2018-07-01T09:13:01.917Z,20.41
2018-07-01T09:14:01.873Z,19.92
2018-07-01T09:15:01.870Z,21.50
2018-07-01T09:16:01.867Z,20.82
2018-07-01T09:17:01.942Z,19.84
2018-07-01T09:18:01.869Z,20.62
2018-07-01T09:19:01.862Z,19.84
2018-07-01T09:20:01.857Z,20.12
2018-07-01T09:21:01.853Z,21.58
2018-07-01T09:22:01.855Z,19.78
2018-07-01T09:23:01.852Z,19.57
2018-07-01T09:24:01.848Z,20.96
2018-07-01T09:25:01.846Z,20.27
2018-07-01T09:26:01.845Z,21.04
2018-07-01T09:27:01.859Z,21.55
2018-07-01T09:28:01.837Z,21.66
2018-07-01T09:29:01.837Z,20.39
2018-07-01T09:30:01.852Z,20.07
2018-07-01T09:31:01.830Z,20.06
2018-07-01T09:32:01.836Z,20.72
2018-07-01T09:33:01.827Z,20.31
2018-07-01T09:34:01.827Z,21.45
2018-07-01T09:35:01.825Z,22.12
2018-07-01T09:36:01.818Z,23.77
2018-07-01T09:37:01.817Z,23.36
2018-07-01T09:38:01.814Z,24.33
2018-07-01T09:39:01.818Z,24.72
2018-07-01T09:40:01.809Z,25.38
2018-07-01T09:41:01.809Z,24.69
2018-07-01T09:42:01.807Z,25.47
2018-07-01T09:43:01.800Z,25.36
2018-07-01T09:44:01.801Z,25.75
2018-07-01T09:45:01.797Z,25.45
2018-07-01T09:46:01.788Z,27.00
2018-07-01T09:47:01.795Z,26.32
2018-07-01T09:48:01.781Z,26.34
2018-07-01T09:49:01.781Z,25.58
2018-07-01T09:50:01.774Z,24.44
2018-07-01T09:51:01.768Z,24.65
2018-07-01T09:52:01.767Z,23.19
2018-07-01T09:53:01.778Z,21.34
2018-07-01T09:54:01.762Z,22.23
2018-07-01T09:55:01.761Z,22.05
2018-07-01T09:56:01.757Z,21.95
2018-07-01T09:57:01.753Z,22.07
2018-07-01T09:58:01.745Z,22.27
2018-07-01T09:59:01.744Z,22.38
2018-07-01T10:00:01.741Z,21.41
2018-07-01T10:01:01.765Z,23.15
2018-07-01T10:02:01.738Z,22.46
2018-07-01T10:03:01.743Z,22.75
2018-07-01T10:04:01.738Z,22.36
2018-07-01T10:05:01.729Z,23.13
2018-07-01T10:06:01.723Z,23.32
2018-07-01T10:07:01.722Z,23.61
2018-07-01T10:08:01.719Z,22.52
2018-07-01T10:09:01.715Z,21.92
2018-07-01T10:10:01.713Z,23.17
2018-07-01T10:11:01.720Z,24.52
2018-07-01T10:12:01.814Z,25.79
2018-07-01T10:13:01.704Z,26.47
2018-07-01T10:14:01.697Z,25.40
2018-07-01T10:15:01.701Z,23.63
2018-07-01T10:16:01.695Z,24.12
2018-07-01T10:17:01.694Z,24.12
2018-07-01T10:18:01.684Z,24.30
2018-07-01T10:19:01.678Z,25.16
2018-07-01T10:20:01.677Z,25.75
2018-07-01T10:21:01.681Z,26.42
2018-07-01T10:22:01.678Z,27.00
2018-07-01T10:23:01.661Z,26.40
2018-07-01T10:24:01.661Z,26.79
2018-07-01T10:25:01.655Z,25.43
2018-07-01T10:26:01.659Z,25.53
2018-07-01T10:27:01.646Z,25.71
2018-07-01T10:28:01.642Z,25.52
2018-07-01T10:29:01.642Z,25.51
2018-07-01T10:30:01.633Z,25.41
2018-07-01T10:31:01.626Z,26.67
2018-07-01T10:32:01.620Z,26.38
2018-07-01T10:33:01.617Z,26.56
2018-07-01T10:34:01.611Z,25.99
2018-07-01T10:35:01.611Z,26.75
2018-07-01T10:36:01.607Z,27.82
2018-07-01T10:37:01.653Z,29.08
2018-07-01T10:38:01.586Z,27.62
2018-07-01T10:39:01.584Z,27.92
2018-07-01T10:40:01.579Z,27.82
2018-07-01T10:41:01.574Z,26.75
2018-07-01T10:42:01.566Z,28.90
2018-07-01T10:43:01.559Z,29.19
2018-07-01T10:44:01.555Z,28.53
2018-07-01T10:45:01.548Z,26.49
2018-07-01T10:46:01.542Z,26.39
2018-07-01T10:47:01.533Z,27.26
2018-07-01T10:48:01.530Z,27.66
2018-07-01T10:49:01.527Z,27.75
2018-07-01T10:50:01.515Z,27.26
2018-07-01T10:51:01.509Z,26.48
2018-07-01T10:52:01.504Z,27.64
2018-07-01T10:53:01.502Z,27.73
2018-07-01T10:54:01.496Z,28.59
2018-07-01T10:55:01.488Z,27.33
2018-07-01T10:56:01.488Z,27.25
2018-07-01T10:57:01.477Z,28.11
2018-07-01T10:58:01.470Z,27.73
2018-07-01T10:59:01.463Z,27.78
2018-07-01T11:00:01.460Z,26.46
2018-07-01T11:01:01.444Z,25.51
2018-07-01T11:02:01.446Z,24.65
2018-07-01T11:03:01.539Z,23.46
2018-07-01T11:04:01.431Z,23.36
2018-07-01T11:05:01.423Z,23.85
2018-07-01T11:06:01.469Z,22.58
2018-07-01T11:07:01.409Z,21.98
2018-07-01T11:08:01.407Z,22.75
2018-07-01T11:09:01.400Z,23.14
2018-07-01T11:10:01.406Z,23.13
2018-07-01T11:11:01.388Z,23.52
2018-07-01T11:12:01.390Z,22.72
2018-07-01T11:13:01.382Z,22.62
2018-07-01T11:14:01.376Z,23.20
2018-07-01T11:15:01.370Z,23.20
2018-07-01T11:16:01.363Z,23.10
2018-07-01T11:17:01.353Z,23.59
2018-07-01T11:18:01.352Z,23.58
2018-07-01T11:19:01.345Z,24.65
2018-07-01T11:20:01.358Z,24.37
2018-07-01T11:21:01.332Z,24.95
2018-07-01T11:22:01.322Z,25.53
2018-07-01T11:23:01.321Z,26.79
2018-07-01T11:24:01.315Z,26.61
2018-07-01T11:25:01.304Z,25.05
2018-07-01T11:26:01.298Z,24.18
2018-07-01T11:27:01.538Z,26.90
2018-07-01T11:28:01.288Z,26.33
2018-07-01T11:29:01.280Z,25.54
2018-07-01T11:30:01.275Z,24.19
2018-07-01T11:31:01.269Z,24.00
2018-07-01T11:32:01.262Z,24.00
2018-07-01T11:33:01.261Z,24.78
2018-07-01T11:34:01.248Z,26.82
2018-07-01T11:35:01.259Z,24.78
2018-07-01T11:36:01.238Z,23.32
2018-07-01T11:37:01.233Z,24.29
2018-07-01T11:38:01.225Z,26.14
2018-07-01T11:39:01.223Z,25.07
2018-07-01T11:40:01.211Z,24.88
2018-07-01T11:41:01.208Z,24.29
2018-07-01T11:42:01.200Z,24.78
2018-07-01T11:43:01.201Z,25.07
2018-07-01T11:44:01.188Z,24.49
2018-07-01T11:45:01.184Z,25.16
2018-07-01T11:46:01.177Z,25.45
2018-07-01T11:47:01.170Z,25.15
2018-07-01T11:48:01.163Z,25.14
2018-07-01T11:49:01.156Z,25.34
2018-07-01T11:50:01.152Z,25.32
2018-07-01T11:51:01.144Z,25.23
2018-07-01T11:52:01.135Z,25.32
2018-07-01T11:53:01.131Z,25.52
2018-07-01T11:54:01.123Z,25.79
2018-07-01T11:55:01.118Z,28.13
2018-07-01T11:56:01.111Z,27.25
2018-07-01T11:57:01.104Z,26.67
2018-07-01T11:58:01.147Z,26.49
2018-07-01T11:59:01.092Z,26.78
2018-07-01T12:00:01.119Z,27.07
2018-07-01T12:01:01.077Z,27.66
2018-07-01T12:02:01.068Z,26.50
2018-07-01T12:03:01.059Z,25.63
2018-07-01T12:04:01.055Z,25.14
2018-07-01T12:05:16.205Z,24.96
2018-07-01T12:06:01.041Z,24.29
2018-07-01T12:07:01.045Z,24.21
2018-07-01T12:08:01.028Z,21.68
2018-07-01T12:09:01.028Z,22.47
2018-07-01T12:10:01.014Z,23.25
2018-07-01T12:11:01.009Z,23.56
2018-07-01T12:12:01.016Z,23.17
2018-07-01T12:13:01.006Z,22.02
2018-07-01T12:14:00.988Z,23.29
2018-07-01T12:15:00.982Z,20.28
2018-07-01T12:16:00.980Z,20.87
2018-07-01T12:17:00.975Z,19.80
2018-07-01T12:18:00.968Z,19.90
2018-07-01T12:19:00.965Z,19.60
2018-07-01T12:20:00.956Z,19.70
2018-07-01T12:21:00.949Z,19.51
2018-07-01T12:22:00.945Z,19.90
2018-07-01T12:23:00.938Z,19.41
2018-07-01T12:24:00.933Z,19.70
2018-07-01T12:25:00.931Z,18.63
2018-07-01T12:26:00.920Z,18.05
2018-07-01T12:27:00.922Z,18.63
2018-07-01T12:28:00.913Z,19.51
2018-07-01T12:29:00.908Z,19.91
2018-07-01T12:30:00.898Z,19.63
2018-07-01T12:31:00.895Z,18.65
2018-07-01T12:32:00.892Z,17.27
2018-07-01T12:33:00.889Z,18.74
2018-07-01T12:34:00.879Z,18.25
2018-07-01T12:35:00.884Z,18.73
2018-07-01T12:36:00.875Z,17.74
2018-07-01T12:37:00.868Z,18.42
2018-07-01T12:38:00.861Z,18.62
2018-07-01T12:39:00.858Z,18.23
2018-07-01T12:40:00.864Z,20.27
2018-07-01T12:41:00.846Z,21.35
2018-07-01T12:42:00.935Z,22.03
2018-07-01T12:43:00.842Z,20.28
2018-07-01T12:44:00.831Z,19.40
2018-07-01T12:45:00.826Z,17.45
2018-07-01T12:46:00.822Z,18.23
2018-07-01T12:47:00.823Z,18.52
2018-07-01T12:48:00.815Z,18.31
2018-07-01T12:49:00.806Z,18.70
2018-07-01T12:50:00.804Z,20.26
2018-07-01T12:51:00.795Z,21.43
2018-07-01T12:52:00.794Z,20.54